Time;durP1;ratioP1;P1;durP2;ratioP2;P2;SDS_P1;SDS_P2;PMS_P1;PMS_P2;Temp;Humidity;BMP_temperature;BMP_pressure;BME280_temperature;BME280_humidity;BME280_pressure;Samples;Min_cycle;Max_cycle;Signal;HPM_P1;HPM_P2
2024/01/12 00:01:34;;;;;;;3.95;2.78;;;1.30;99.90;;;;;;4991383;28;20368;-77
2024/01/12 00:04:00;;;;;;;11.10;5.20;;;1.40;99.90;;;;;;4990181;28;20085;-79
2024/01/12 00:06:25;;;;;;;7.47;4.35;;;1.40;99.90;;;;;;5008500;28;20038;-78
2024/01/12 00:08:51;;;;;;;6.65;4.40;;;1.40;99.90;;;;;;4991366;28;20437;-78
2024/01/12 00:11:17;;;;;;;7.00;4.47;;;1.40;99.90;;;;;;4991518;28;20042;-78
2024/01/12 00:13:43;;;;;;;6.28;4.38;;;1.40;99.90;;;;;;4991553;28;20112;-78
2024/01/12 00:16:09;;;;;;;6.43;5.13;;;1.40;99.90;;;;;;4989432;28;20111;-78
2024/01/12 00:18:34;;;;;;;5.53;3.75;;;1.50;99.90;;;;;;4992292;28;20037;-76
2024/01/12 00:21:00;;;;;;;7.03;4.10;;;1.40;99.90;;;;;;4986471;28;20467;-77
2024/01/12 00:23:26;;;;;;;6.70;3.22;;;1.40;99.90;;;;;;4991236;28;20104;-77
2024/01/12 00:25:58;;;;;;;8.82;5.00;;;1.40;99.90;;;;;;4992008;28;20121;-77
2024/01/12 00:28:28;;;;;;;9.43;4.65;;;1.40;99.90;;;;;;4992471;28;20113;-77
2024/01/12 00:30:54;;;;;;;6.53;3.92;;;1.40;99.90;;;;;;4994372;28;20034;-76
2024/01/12 00:33:21;;;;;;;4.50;2.65;;;1.50;99.90;;;;;;4991363;28;20501;-77
2024/01/12 00:35:47;;;;;;;3.55;2.35;;;1.40;99.90;;;;;;4990977;28;20065;-77
2024/01/12 00:38:13;;;;;;;15.60;4.07;;;1.40;99.90;;;;;;4991797;28;20045;-77
2024/01/12 00:40:39;;;;;;;5.20;3.08;;;1.50;99.90;;;;;;4975228;28;20033;-77
2024/01/12 00:43:05;;;;;;;3.70;2.13;;;1.50;99.90;;;;;;4974437;28;20089;-77
2024/01/12 00:45:30;;;;;;;6.03;2.90;;;1.50;99.90;;;;;;4990588;28;20477;-77
2024/01/12 00:47:56;;;;;;;2.60;1.92;;;1.50;99.90;;;;;;4993552;28;20560;-77
2024/01/12 00:50:22;;;;;;;6.32;2.67;;;1.60;99.90;;;;;;4990202;28;20041;-77
2024/01/12 00:52:47;;;;;;;5.60;2.78;;;1.60;99.90;;;;;;4990137;28;20073;-77
2024/01/12 00:55:13;;;;;;;5.05;2.25;;;1.60;99.90;;;;;;4991157;28;20109;-77
2024/01/12 00:57:39;;;;;;;5.80;2.20;;;1.70;99.90;;;;;;4975684;28;20159;-78
2024/01/12 01:00:05;;;;;;;7.22;2.60;;;1.70;99.90;;;;;;4990722;28;20050;-77
2024/01/12 01:02:31;;;;;;;5.40;2.60;;;1.70;99.90;;;;;;4991160;28;20551;-77
2024/01/12 01:04:56;;;;;;;6.35;3.38;;;1.70;99.90;;;;;;4991191;28;20042;-77
2024/01/12 01:07:22;;;;;;;8.68;2.92;;;1.70;99.90;;;;;;4991888;28;20127;-77
2024/01/12 01:09:48;;;;;;;5.47;3.15;;;1.70;99.90;;;;;;4980454;28;20038;-78
2024/01/12 01:12:14;;;;;;;3.72;2.38;;;1.80;99.90;;;;;;4993408;28;20248;-77
2024/01/12 01:14:40;;;;;;;7.88;3.15;;;1.80;99.90;;;;;;5004152;28;20053;-77
2024/01/12 01:17:06;;;;;;;3.03;2.28;;;1.70;99.90;;;;;;4985889;28;20133;-76
2024/01/12 01:19:32;;;;;;;3.83;1.75;;;1.70;99.90;;;;;;4994359;28;20052;-76
2024/01/12 01:21:57;;;;;;;5.13;2.58;;;1.70;99.90;;;;;;4993850;28;20035;-76
2024/01/12 01:24:27;;;;;;;8.38;1.90;;;1.80;99.90;;;;;;4987114;28;20112;-77
2024/01/12 01:26:52;;;;;;;2.22;1.20;;;1.80;99.90;;;;;;4991902;28;20036;-77
2024/01/12 01:29:18;;;;;;;2.17;1.63;;;1.80;99.90;;;;;;4976485;28;20042;-77
2024/01/12 01:31:44;;;;;;;2.03;0.75;;;1.80;99.90;;;;;;4976859;28;20133;-76
2024/01/12 01:34:10;;;;;;;2.97;1.48;;;1.80;99.90;;;;;;4993531;28;20107;-76
2024/01/12 01:36:35;;;;;;;1.85;1.45;;;1.90;99.90;;;;;;4991592;28;20042;-77
2024/01/12 01:39:01;;;;;;;1.45;1.10;;;1.90;99.90;;;;;;4994683;28;20520;-76
2024/01/12 01:41:27;;;;;;;2.58;1.92;;;1.90;99.90;;;;;;4992746;28;20065;-76
2024/01/12 01:43:52;;;;;;;2.13;1.38;;;1.90;99.90;;;;;;4976633;28;20034;-77
2024/01/12 01:46:19;;;;;;;8.43;1.65;;;2.00;99.90;;;;;;4992346;28;20073;-77
2024/01/12 01:48:45;;;;;;;1.10;0.70;;;2.00;99.90;;;;;;4982372;28;20038;-76
2024/01/12 01:51:11;;;;;;;10.65;0.75;;;2.00;99.90;;;;;;4994274;28;20038;-76
2024/01/12 01:53:38;;;;;;;4.35;1.48;;;2.00;99.90;;;;;;4992597;28;20049;-77
2024/01/12 01:56:04;;;;;;;1.15;0.70;;;2.00;99.90;;;;;;4992561;28;20052;-77
2024/01/12 01:58:30;;;;;;;1.67;0.55;;;2.00;99.90;;;;;;4977256;28;20049;-77
2024/01/12 02:00:56;;;;;;;2.33;1.02;;;2.10;99.90;;;;;;4993106;28;20515;-77
2024/01/12 02:03:22;;;;;;;6.63;1.33;;;2.00;99.90;;;;;;5012162;28;20111;-76
2024/01/12 02:05:50;;;;;;;0.80;0.75;;;2.10;99.90;;;;;;4992965;28;20716;-76
2024/01/12 02:08:15;;;;;;;1.63;0.63;;;2.10;99.90;;;;;;4994532;28;20053;-77
2024/01/12 02:10:42;;;;;;;3.22;1.23;;;2.20;99.90;;;;;;4992724;28;20050;-77
2024/01/12 02:13:08;;;;;;;3.58;0.60;;;2.20;99.90;;;;;;4991718;28;20045;-76
2024/01/12 02:15:34;;;;;;;1.80;0.82;;;2.20;99.90;;;;;;4991949;28;20417;-76
2024/01/12 02:18:00;;;;;;;1.63;0.90;;;2.20;99.90;;;;;;4994202;28;20057;-76
2024/01/12 02:20:25;;;;;;;6.00;0.95;;;2.30;99.90;;;;;;4976748;28;20048;-76
2024/01/12 02:22:51;;;;;;;2.92;0.70;;;2.30;99.90;;;;;;4991490;28;20064;-77
2024/01/12 02:25:17;;;;;;;0.60;0.50;;;2.30;99.90;;;;;;4993437;28;20128;-77
2024/01/12 02:27:43;;;;;;;6.85;0.82;;;2.30;99.90;;;;;;4974857;28;20038;-77
2024/01/12 02:30:09;;;;;;;0.68;0.47;;;2.30;99.90;;;;;;5005894;28;20220;-77
2024/01/12 02:32:35;;;;;;;0.75;0.40;;;2.30;99.90;;;;;;4993596;28;20042;-77
2024/01/12 02:35:01;;;;;;;2.08;0.50;;;2.30;99.90;;;;;;4989101;28;20390;-77
2024/01/12 02:37:26;;;;;;;4.57;1.02;;;2.40;99.90;;;;;;4988441;28;20034;-76
2024/01/12 02:39:52;;;;;;;0.85;0.32;;;2.30;99.90;;;;;;4992402;28;20393;-76
2024/01/12 02:42:18;;;;;;;1.02;0.50;;;2.40;99.90;;;;;;4993484;28;20096;-76
2024/01/12 02:44:43;;;;;;;1.08;0.47;;;2.40;99.90;;;;;;4990685;28;20124;-76
2024/01/12 02:47:12;;;;;;;0.40;0.40;;;2.40;99.90;;;;;;4991353;28;20053;-77
2024/01/12 02:49:37;;;;;;;1.85;0.55;;;2.40;99.90;;;;;;4991888;28;20053;-76
2024/01/12 02:52:03;;;;;;;1.65;0.55;;;2.50;99.90;;;;;;4996095;28;20125;-77
2024/01/12 02:54:29;;;;;;;1.15;0.43;;;2.50;99.90;;;;;;4991867;28;20500;-77
2024/01/12 02:56:55;;;;;;;2.47;0.82;;;2.50;99.90;;;;;;4990204;28;20120;-77
2024/01/12 02:59:20;;;;;;;2.13;0.65;;;2.50;99.90;;;;;;4988696;28;20164;-77
2024/01/12 03:01:46;;;;;;;0.35;0.35;;;2.60;99.90;;;;;;4987209;28;20466;-76
2024/01/12 03:04:12;;;;;;;1.38;0.82;;;2.50;99.90;;;;;;4990520;28;20401;-76
2024/01/12 03:06:37;;;;;;;0.43;0.43;;;2.50;99.90;;;;;;4995460;28;20686;-76
2024/01/12 03:09:03;;;;;;;2.17;1.38;;;2.50;99.90;;;;;;4993524;28;20390;-76
2024/01/12 03:11:29;;;;;;;0.50;0.50;;;2.50;99.90;;;;;;4995822;28;20494;-76
2024/01/12 03:13:54;;;;;;;2.78;0.80;;;2.50;99.90;;;;;;4992472;28;20045;-77
2024/01/12 03:16:21;;;;;;;0.73;0.57;;;2.50;99.90;;;;;;4974952;28;20501;-77
2024/01/12 03:18:48;;;;;;;2.65;0.65;;;2.50;99.90;;;;;;4990840;28;20048;-76
2024/01/12 03:21:14;;;;;;;2.83;0.90;;;2.60;99.90;;;;;;4989043;28;20070;-76
2024/01/12 03:23:40;;;;;;;0.98;0.70;;;2.50;99.90;;;;;;4994235;28;20536;-76
2024/01/12 03:26:06;;;;;;;1.40;0.77;;;2.50;99.90;;;;;;4991429;28;20099;-77
2024/01/12 03:28:34;;;;;;;0.30;0.28;;;2.50;99.90;;;;;;4994185;28;20037;-77
2024/01/12 03:31:00;;;;;;;2.20;0.70;;;2.40;99.90;;;;;;4992669;28;20258;-77
2024/01/12 03:33:26;;;;;;;5.32;0.85;;;2.50;99.90;;;;;;4976119;28;20125;-77
2024/01/12 03:35:51;;;;;;;0.88;0.40;;;2.40;99.90;;;;;;4973143;28;20538;-77
2024/01/12 03:38:17;;;;;;;0.50;0.35;;;2.40;99.90;;;;;;4992049;28;20085;-77
2024/01/12 03:40:43;;;;;;;1.48;0.50;;;2.40;99.90;;;;;;4992182;28;20046;-76
2024/01/12 03:43:08;;;;;;;0.40;0.25;;;2.30;99.90;;;;;;4992593;28;20055;-76
2024/01/12 03:45:34;;;;;;;1.20;0.40;;;2.40;99.90;;;;;;4992458;28;20058;-76
2024/01/12 03:48:00;;;;;;;0.98;0.32;;;2.30;99.90;;;;;;4994691;28;20052;-76
2024/01/12 03:50:26;;;;;;;0.38;0.15;;;2.30;99.90;;;;;;4989458;28;20046;-76
2024/01/12 03:52:51;;;;;;;7.43;0.77;;;2.30;99.90;;;;;;4989613;28;20042;-76
2024/01/12 03:55:17;;;;;;;0.55;0.32;;;2.30;99.90;;;;;;4973980;28;20038;-76
2024/01/12 03:57:43;;;;;;;2.08;0.65;;;2.30;99.90;;;;;;5001391;28;20405;-76
2024/01/12 04:00:09;;;;;;;1.75;0.88;;;2.30;99.90;;;;;;4989367;28;20052;-76
2024/01/12 04:02:36;;;;;;;3.47;0.75;;;2.30;99.90;;;;;;4975207;28;20034;-76
2024/01/12 04:05:03;;;;;;;1.00;0.55;;;2.30;99.90;;;;;;4991429;28;20037;-76
2024/01/12 04:07:29;;;;;;;0.38;0.25;;;2.20;99.90;;;;;;4990968;28;20426;-76
2024/01/12 04:09:55;;;;;;;1.65;0.52;;;2.20;99.90;;;;;;4974379;28;20141;-76
2024/01/12 04:12:20;;;;;;;1.30;0.17;;;2.20;99.90;;;;;;4990681;28;20409;-76
2024/01/12 04:14:46;;;;;;;3.65;0.95;;;2.20;99.90;;;;;;4991451;28;20060;-77
2024/01/12 04:17:12;;;;;;;3.40;0.73;;;2.10;99.90;;;;;;4990236;28;20108;-77
2024/01/12 04:19:38;;;;;;;11.80;0.68;;;2.00;99.90;;;;;;4998643;28;20058;-77
2024/01/12 04:22:03;;;;;;;1.13;0.20;;;2.00;99.90;;;;;;4989723;28;20045;-76
2024/01/12 04:24:31;;;;;;;2.35;0.47;;;1.80;99.90;;;;;;4986550;28;20042;-77
2024/01/12 04:26:57;;;;;;;0.10;0.10;;;1.70;99.90;;;;;;4996341;28;20038;-75
2024/01/12 04:29:22;;;;;;;0.90;0.45;;;1.60;99.90;;;;;;4990696;28;20037;-76
2024/01/12 04:31:48;;;;;;;0.30;0.30;;;1.50;99.90;;;;;;4990490;28;20046;-77
2024/01/12 04:34:15;;;;;;;0.20;0.20;;;1.50;99.90;;;;;;4991495;28;20497;-77
2024/01/12 04:36:41;;;;;;;0.22;0.22;;;1.50;99.90;;;;;;4979757;28;20103;-76
2024/01/12 04:39:07;;;;;;;0.55;0.40;;;1.50;99.90;;;;;;4991520;28;20401;-76
2024/01/12 04:41:33;;;;;;;0.55;0.45;;;1.50;99.90;;;;;;4990716;28;20393;-76
2024/01/12 04:43:58;;;;;;;1.08;0.50;;;1.50;99.90;;;;;;4991317;28;20408;-76
2024/01/12 04:46:24;;;;;;;1.88;0.63;;;1.50;99.90;;;;;;4987091;28;20060;-76
2024/01/12 04:48:50;;;;;;;2.67;0.60;;;1.40;99.90;;;;;;4990467;28;20049;-76
2024/01/12 04:51:15;;;;;;;1.30;0.40;;;1.60;99.90;;;;;;4992793;28;20116;-76
2024/01/12 04:53:41;;;;;;;7.30;0.68;;;1.50;99.90;;;;;;4994172;28;20048;-77
2024/01/12 04:56:07;;;;;;;0.85;0.47;;;1.50;99.90;;;;;;4994093;28;20530;-76
2024/01/12 04:58:32;;;;;;;2.92;1.08;;;1.60;99.90;;;;;;4994756;28;20046;-76
2024/01/12 05:00:58;;;;;;;0.50;0.22;;;1.60;99.90;;;;;;4978336;28;20050;-76
2024/01/12 05:03:24;;;;;;;3.13;1.08;;;1.60;99.90;;;;;;4995418;28;20049;-76
2024/01/12 05:05:50;;;;;;;2.88;1.00;;;1.60;99.90;;;;;;4986551;28;20466;-76
2024/01/12 05:08:16;;;;;;;5.50;1.00;;;1.70;99.90;;;;;;5008623;28;20042;-77
2024/01/12 05:10:41;;;;;;;0.95;0.40;;;1.70;99.90;;;;;;4993755;28;20053;-77
2024/01/12 05:13:07;;;;;;;2.30;0.93;;;1.80;99.90;;;;;;4992899;28;20041;-76
2024/01/12 05:15:33;;;;;;;1.13;0.55;;;1.80;99.90;;;;;;4992272;28;20046;-76
2024/01/12 05:17:59;;;;;;;0.22;0.20;;;1.90;99.90;;;;;;4993170;28;20045;-75
2024/01/12 05:20:25;;;;;;;0.65;0.40;;;1.90;99.90;;;;;;4988175;28;20057;-76
2024/01/12 05:22:51;;;;;;;0.43;0.43;;;1.90;99.90;;;;;;4993311;28;20080;-76
2024/01/12 05:25:17;;;;;;;0.60;0.35;;;2.00;99.90;;;;;;4994414;28;20087;-75
2024/01/12 05:27:42;;;;;;;1.00;0.50;;;2.00;99.90;;;;;;4990947;28;20063;-76
2024/01/12 05:30:09;;;;;;;0.95;0.50;;;2.00;99.90;;;;;;4991351;28;20046;-76
2024/01/12 05:32:34;;;;;;;0.22;0.22;;;2.00;99.90;;;;;;4978194;28;20046;-76
2024/01/12 05:35:00;;;;;;;1.77;0.38;;;2.00;99.90;;;;;;4991994;28;20042;-75
2024/01/12 05:37:26;;;;;;;3.70;0.45;;;2.00;99.90;;;;;;4993828;28;20454;-75
2024/01/12 05:39:52;;;;;;;0.63;0.43;;;2.10;99.90;;;;;;4992902;28;20145;-75
2024/01/12 05:42:17;;;;;;;2.15;0.63;;;2.00;99.90;;;;;;4994027;28;20029;-76
2024/01/12 05:44:43;;;;;;;0.63;0.40;;;2.00;99.90;;;;;;4993956;28;20127;-76
2024/01/12 05:47:09;;;;;;;1.60;0.80;;;2.00;99.90;;;;;;4992165;28;20073;-75
2024/01/12 05:49:38;;;;;;;2.47;0.43;;;2.10;99.90;;;;;;4982906;28;20042;-75
2024/01/12 05:52:04;;;;;;;0.20;0.20;;;2.00;99.90;;;;;;4993366;28;20042;-75
2024/01/12 05:54:30;;;;;;;0.73;0.40;;;2.10;99.90;;;;;;4992230;28;20078;-76
2024/01/12 05:56:55;;;;;;;0.77;0.45;;;2.10;99.90;;;;;;4984799;28;20045;-76
2024/01/12 05:59:21;;;;;;;3.15;0.68;;;2.10;99.90;;;;;;4995131;28;20431;-75
2024/01/12 06:01:47;;;;;;;0.30;0.20;;;2.10;99.90;;;;;;4994966;28;20038;-76
2024/01/12 06:04:12;;;;;;;0.15;0.15;;;2.10;99.90;;;;;;4989146;28;20482;-75
2024/01/12 06:06:40;;;;;;;1.00;0.50;;;2.10;99.90;;;;;;4974714;28;20149;-76
2024/01/12 06:09:06;;;;;;;0.73;0.43;;;2.10;99.90;;;;;;4996631;28;20037;-75
2024/01/12 06:11:32;;;;;;;2.08;0.52;;;2.10;99.90;;;;;;4991726;28;20393;-76
2024/01/12 06:13:57;;;;;;;5.30;1.27;;;2.10;99.90;;;;;;4991860;28;20443;-75
2024/01/12 06:16:23;;;;;;;4.95;0.60;;;2.10;99.90;;;;;;4992596;28;20033;-75
2024/01/12 06:18:49;;;;;;;0.70;0.68;;;2.00;99.90;;;;;;4981760;28;20211;-76
2024/01/12 06:21:14;;;;;;;0.75;0.28;;;2.10;99.90;;;;;;4977341;28;20413;-76
2024/01/12 06:23:40;;;;;;;0.20;0.20;;;2.00;99.90;;;;;;4991861;28;20057;-76
2024/01/12 06:26:06;;;;;;;5.75;0.68;;;1.90;99.90;;;;;;4990196;28;20632;-76
2024/01/12 06:28:31;;;;;;;0.50;0.50;;;2.00;99.90;;;;;;4991910;28;20136;-76
2024/01/12 06:30:57;;;;;;;3.67;0.63;;;2.10;99.90;;;;;;4984449;28;20409;-76
2024/01/12 06:33:23;;;;;;;3.42;0.43;;;2.00;99.90;;;;;;4992394;28;20066;-75
2024/01/12 06:35:49;;;;;;;0.77;0.30;;;2.00;99.90;;;;;;4976846;28;20046;-76
2024/01/12 06:38:15;;;;;;;1.05;0.82;;;2.00;99.90;;;;;;4991779;28;20117;-76
2024/01/12 06:40:41;;;;;;;1.45;0.70;;;2.10;99.90;;;;;;4991669;28;20382;-75
2024/01/12 06:43:06;;;;;;;0.63;0.30;;;2.10;99.90;;;;;;4976918;28;20045;-76
2024/01/12 06:45:32;;;;;;;0.40;0.38;;;2.10;99.90;;;;;;4991932;28;20053;-76
2024/01/12 06:47:58;;;;;;;0.47;0.30;;;2.10;99.90;;;;;;4992178;28;20041;-76
2024/01/12 06:50:23;;;;;;;1.50;0.40;;;2.10;99.90;;;;;;4991996;28;20044;-76
2024/01/12 06:52:49;;;;;;;1.40;0.63;;;2.10;99.90;;;;;;4974846;28;20055;-75
2024/01/12 06:55:15;;;;;;;1.02;0.20;;;2.10;99.90;;;;;;4998411;28;20054;-76
2024/01/12 06:57:43;;;;;;;0.80;0.52;;;2.10;99.90;;;;;;4990493;28;20137;-75
2024/01/12 07:00:13;;;;;;;0.98;0.40;;;2.10;99.90;;;;;;4976649;28;20561;-75
2024/01/12 07:02:38;;;;;;;0.20;0.20;;;2.20;99.90;;;;;;4974727;28;20037;-76
2024/01/12 07:05:04;;;;;;;5.25;0.70;;;2.20;99.90;;;;;;4991287;28;20521;-74
2024/01/12 07:07:30;;;;;;;5.38;0.52;;;2.20;99.90;;;;;;4987743;28;20529;-74
2024/01/12 07:09:56;;;;;;;0.50;0.28;;;2.20;99.90;;;;;;4989590;28;20136;-75
2024/01/12 07:12:21;;;;;;;2.95;0.60;;;2.20;99.90;;;;;;4990671;28;20042;-75
2024/01/12 07:15:08;;;;;;;2.15;0.77;;;2.20;99.90;;;;;;4992955;28;20072;-74
2024/01/12 07:17:34;;;;;;;6.22;1.15;;;2.30;99.90;;;;;;4990514;28;20104;-75
2024/01/12 07:20:00;;;;;;;1.55;0.65;;;2.20;99.90;;;;;;5011043;28;20046;-75
2024/01/12 07:22:26;;;;;;;1.90;1.15;;;2.30;99.90;;;;;;4984818;28;20030;-75
2024/01/12 07:24:51;;;;;;;0.43;0.25;;;2.30;99.90;;;;;;4992088;28;20477;-75
2024/01/12 07:27:17;;;;;;;0.55;0.20;;;2.40;99.90;;;;;;4991921;28;20153;-76
2024/01/12 07:29:43;;;;;;;1.80;0.35;;;2.30;99.90;;;;;;4992486;28;20069;-76
2024/01/12 07:32:09;;;;;;;0.75;0.50;;;2.30;99.90;;;;;;4990991;28;20081;-75
2024/01/12 07:34:35;;;;;;;3.35;0.45;;;2.40;99.90;;;;;;4991401;28;20042;-76
2024/01/12 07:37:01;;;;;;;1.45;0.63;;;2.30;99.90;;;;;;4990859;28;20608;-76
2024/01/12 07:39:27;;;;;;;3.88;0.73;;;2.40;99.90;;;;;;4990478;28;20108;-75
2024/01/12 07:41:52;;;;;;;1.02;0.82;;;2.40;99.90;;;;;;4991550;28;20026;-75
2024/01/12 07:44:18;;;;;;;4.95;0.90;;;2.40;99.90;;;;;;4976248;28;20376;-76
2024/01/12 07:46:44;;;;;;;3.40;1.10;;;2.40;99.90;;;;;;4993224;28;20049;-75
2024/01/12 07:49:09;;;;;;;1.98;0.60;;;2.40;99.90;;;;;;4990114;28;20458;-76
2024/01/12 07:51:35;;;;;;;5.60;0.75;;;2.40;99.90;;;;;;4991531;28;20579;-77
2024/01/12 07:54:01;;;;;;;0.98;0.40;;;2.40;99.90;;;;;;4991281;28;20037;-76
2024/01/12 07:56:26;;;;;;;3.30;0.30;;;2.40;99.90;;;;;;4992675;28;20534;-76
2024/01/12 07:58:52;;;;;;;2.53;0.95;;;2.50;99.90;;;;;;5002504;28;20478;-76
2024/01/12 08:01:18;;;;;;;5.68;0.95;;;2.40;99.90;;;;;;4973862;28;20041;-76
2024/01/12 08:03:44;;;;;;;0.10;0.10;;;2.50;99.90;;;;;;4992467;28;20048;-77
2024/01/12 08:06:10;;;;;;;0.73;0.57;;;2.50;99.90;;;;;;4992677;28;20473;-77
2024/01/12 08:08:37;;;;;;;3.10;0.20;;;2.50;99.90;;;;;;4990622;28;20065;-76
2024/01/12 08:11:03;;;;;;;0.90;0.38;;;2.50;99.90;;;;;;4991034;28;20075;-77
2024/01/12 08:13:29;;;;;;;3.30;0.55;;;2.50;99.90;;;;;;4990624;28;20142;-77
2024/01/12 08:15:54;;;;;;;3.78;0.80;;;2.50;99.90;;;;;;4987917;28;20497;-76
2024/01/12 08:18:20;;;;;;;0.55;0.47;;;2.50;99.90;;;;;;4989915;28;20044;-76
2024/01/12 08:20:46;;;;;;;2.83;0.50;;;2.50;99.90;;;;;;4989185;28;20068;-76
2024/01/12 08:23:12;;;;;;;0.73;0.60;;;2.50;99.90;;;;;;4987981;28;20091;-76
2024/01/12 08:25:38;;;;;;;0.38;0.38;;;2.50;99.90;;;;;;4990607;28;20042;-76
2024/01/12 08:28:04;;;;;;;2.35;0.50;;;2.60;99.90;;;;;;4973428;28;20034;-77
2024/01/12 08:30:29;;;;;;;0.75;0.57;;;2.60;99.90;;;;;;4974243;28;20052;-78
2024/01/12 08:32:55;;;;;;;1.90;0.52;;;2.60;99.90;;;;;;4991217;28;20068;-78
2024/01/12 08:35:21;;;;;;;1.98;0.80;;;2.60;99.90;;;;;;4991887;28;20065;-78
2024/01/12 08:37:46;;;;;;;3.22;0.90;;;2.70;99.90;;;;;;4973938;28;20402;-78
2024/01/12 08:40:12;;;;;;;7.18;0.65;;;2.70;99.90;;;;;;4989214;28;20104;-78
2024/01/12 08:42:39;;;;;;;6.30;0.85;;;2.70;99.90;;;;;;4989448;28;20153;-77
2024/01/12 08:45:05;;;;;;;0.68;0.50;;;2.70;99.90;;;;;;4989366;28;20045;-77
2024/01/12 08:47:31;;;;;;;0.90;0.80;;;2.70;99.90;;;;;;4990008;28;20088;-78
2024/01/12 08:49:58;;;;;;;0.80;0.43;;;2.70;99.90;;;;;;4991145;28;20069;-78
2024/01/12 08:52:24;;;;;;;3.20;0.35;;;2.80;99.90;;;;;;4982182;28;20049;-79
2024/01/12 08:54:49;;;;;;;0.60;0.45;;;2.80;99.90;;;;;;4988892;28;20128;-79
2024/01/12 08:57:15;;;;;;;1.30;1.08;;;2.80;99.90;;;;;;4990141;28;20133;-77
2024/01/12 08:59:41;;;;;;;0.50;0.45;;;2.80;99.90;;;;;;4974842;28;20556;-79
2024/01/12 09:02:07;;;;;;;3.67;0.50;;;2.80;99.90;;;;;;4991690;28;20113;-78
2024/01/12 09:04:34;;;;;;;2.67;0.93;;;2.90;99.90;;;;;;4990137;28;20552;-78
2024/01/12 09:07:00;;;;;;;0.55;0.30;;;2.90;99.90;;;;;;4992576;28;20124;-78
2024/01/12 09:09:25;;;;;;;1.40;0.70;;;3.00;99.90;;;;;;4991694;28;20045;-78
2024/01/12 09:11:51;;;;;;;0.75;0.35;;;2.90;99.90;;;;;;4991301;28;20034;-77
2024/01/12 09:14:17;;;;;;;1.50;0.70;;;3.00;99.90;;;;;;4973669;28;20493;-78
2024/01/12 09:16:43;;;;;;;0.63;0.30;;;3.00;99.90;;;;;;4988589;28;20123;-78
2024/01/12 09:19:09;;;;;;;1.95;1.08;;;3.00;99.90;;;;;;4989465;28;20046;-78
2024/01/12 09:21:35;;;;;;;0.57;0.55;;;3.10;99.90;;;;;;4971450;28;20045;-77
2024/01/12 09:24:00;;;;;;;1.85;0.95;;;3.10;99.90;;;;;;4989687;28;20434;-77
2024/01/12 09:26:26;;;;;;;2.55;0.80;;;3.20;99.90;;;;;;4972585;28;20498;-77
2024/01/12 09:28:52;;;;;;;2.58;0.73;;;3.20;99.90;;;;;;4984498;28;20038;-77
2024/01/12 09:31:17;;;;;;;0.60;0.50;;;3.20;99.90;;;;;;4990842;28;20421;-77
2024/01/12 09:33:43;;;;;;;7.63;0.88;;;3.20;99.90;;;;;;4985213;28;20041;-77
2024/01/12 09:36:09;;;;;;;2.13;0.43;;;3.30;99.90;;;;;;4989026;28;20045;-78
2024/01/12 09:38:35;;;;;;;4.78;0.73;;;3.40;99.90;;;;;;4988989;28;20048;-77
2024/01/12 09:41:07;;;;;;;5.75;0.75;;;3.40;99.90;;;;;;4999424;28;20089;-78
2024/01/12 09:43:36;;;;;;;0.52;0.45;;;3.40;99.90;;;;;;4993502;28;20042;-77
2024/01/12 09:46:06;;;;;;;4.07;1.25;;;3.50;99.90;;;;;;5004907;28;20056;-78
2024/01/12 09:48:33;;;;;;;3.97;0.98;;;3.50;99.90;;;;;;4994379;28;20432;-77
2024/01/12 09:51:00;;;;;;;4.75;0.93;;;3.50;99.90;;;;;;4993941;28;20069;-77
2024/01/12 09:53:26;;;;;;;0.52;0.52;;;3.60;99.90;;;;;;4994527;28;20563;-77
2024/01/12 09:55:51;;;;;;;3.80;1.00;;;3.60;99.90;;;;;;4992460;28;20042;-77
2024/01/12 09:58:19;;;;;;;1.13;0.65;;;3.60;99.90;;;;;;4992950;28;20042;-77
2024/01/12 10:00:47;;;;;;;1.83;0.75;;;3.70;99.90;;;;;;4992835;28;20120;-77
2024/01/12 10:03:13;;;;;;;8.02;0.40;;;3.70;99.90;;;;;;4991789;28;20049;-77
2024/01/12 10:05:41;;;;;;;2.10;0.52;;;3.70;99.90;;;;;;4993819;28;20073;-78
2024/01/12 10:08:07;;;;;;;0.95;0.30;;;3.80;99.90;;;;;;4991027;28;20117;-77
2024/01/12 10:10:33;;;;;;;1.55;0.93;;;3.80;99.90;;;;;;4994126;28;20441;-77
2024/01/12 10:13:01;;;;;;;4.35;0.60;;;3.80;99.90;;;;;;4993675;28;20073;-77
2024/01/12 10:15:29;;;;;;;3.33;0.98;;;3.90;99.90;;;;;;4992915;28;20457;-77
2024/01/12 10:17:55;;;;;;;0.17;0.17;;;3.90;99.90;;;;;;4993815;28;20053;-77
2024/01/12 10:20:22;;;;;;;1.33;0.40;;;4.00;99.90;;;;;;4997709;28;20052;-78
2024/01/12 10:22:57;;;;;;;3.03;0.75;;;4.00;99.90;;;;;;4978789;28;20030;-77
2024/01/12 10:25:24;;;;;;;11.13;1.17;;;4.00;99.90;;;;;;4997225;28;20538;-77
2024/01/12 10:27:57;;;;;;;2.25;0.40;;;4.10;99.90;;;;;;4994467;28;20073;-77
2024/01/12 10:30:23;;;;;;;0.85;0.85;;;4.10;99.90;;;;;;5009968;28;20049;-77
2024/01/12 10:32:53;;;;;;;0.88;0.30;;;4.20;99.90;;;;;;4994058;28;20126;-77
2024/01/12 10:35:20;;;;;;;0.82;0.30;;;4.20;99.90;;;;;;4994545;28;20489;-77
2024/01/12 10:37:47;;;;;;;0.17;0.13;;;4.30;99.90;;;;;;4990289;28;20037;-77
2024/01/12 10:40:16;;;;;;;15.25;1.27;;;4.30;99.90;;;;;;4976110;28;20070;-77
2024/01/12 10:42:48;;;;;;;2.60;0.40;;;4.40;99.90;;;;;;4981481;28;20568;-78
2024/01/12 10:45:20;;;;;;;0.55;0.20;;;4.50;99.90;;;;;;4990441;28;20184;-78
2024/01/12 10:48:02;;;;;;;5.90;0.45;;;4.50;99.90;;;;;;4969634;28;20495;-77
2024/01/12 10:50:34;;;;;;;0.77;0.50;;;4.60;99.90;;;;;;4993241;28;20073;-78
2024/01/12 10:53:32;;;;;;;2.72;0.82;;;4.60;99.90;;;;;;5008188;28;20046;-78
2024/01/12 10:55:59;;;;;;;0.75;0.38;;;4.70;99.90;;;;;;4986534;28;20061;-78
2024/01/12 10:58:26;;;;;;;4.85;0.57;;;4.70;99.90;;;;;;4993370;28;20069;-78
2024/01/12 11:00:52;;;;;;;1.95;0.65;;;4.80;99.90;;;;;;4990656;28;20034;-77
2024/01/12 11:03:20;;;;;;;15.35;1.33;;;4.80;99.90;;;;;;4983198;28;20038;-78
2024/01/12 11:05:48;;;;;;;0.80;0.20;;;4.80;99.90;;;;;;4982203;28;20478;-77
2024/01/12 11:08:15;;;;;;;1.65;0.40;;;4.80;99.90;;;;;;4975898;28;20037;-77
2024/01/12 11:10:53;;;;;;;1.52;0.40;;;4.80;99.90;;;;;;4992046;28;20588;-77
2024/01/12 11:13:19;;;;;;;4.13;0.80;;;4.80;99.90;;;;;;4991882;28;20079;-77
2024/01/12 11:15:49;;;;;;;0.82;0.17;;;4.90;99.90;;;;;;4975792;28;20549;-77
2024/01/12 11:18:16;;;;;;;1.17;0.25;;;4.80;99.90;;;;;;4993407;28;20099;-77
2024/01/12 11:20:43;;;;;;;2.40;0.55;;;4.80;99.90;;;;;;4974122;28;20081;-77
2024/01/12 11:23:09;;;;;;;3.20;0.88;;;4.90;99.90;;;;;;4992123;28;20401;-77
2024/01/12 11:25:35;;;;;;;1.13;0.32;;;4.90;99.90;;;;;;4992129;28;20080;-77
2024/01/12 11:28:01;;;;;;;3.63;0.38;;;4.90;99.90;;;;;;4992894;28;20038;-77
2024/01/12 11:30:29;;;;;;;0.32;0.30;;;4.90;99.90;;;;;;4993767;28;20041;-77
2024/01/12 11:33:05;;;;;;;1.25;0.28;;;4.90;99.90;;;;;;4993110;28;20077;-77
2024/01/12 11:35:31;;;;;;;2.45;1.02;;;5.00;99.90;;;;;;4992089;28;20038;-77
2024/01/12 11:38:01;;;;;;;2.67;0.75;;;5.00;99.90;;;;;;4972076;28;20056;-77
2024/01/12 11:40:28;;;;;;;0.20;0.10;;;5.00;99.90;;;;;;4987342;28;20037;-77
2024/01/12 11:42:53;;;;;;;3.38;0.50;;;5.10;99.90;;;;;;4985086;28;20042;-77
2024/01/12 11:45:19;;;;;;;9.00;0.75;;;5.10;99.90;;;;;;4992108;28;20108;-77
2024/01/12 11:47:46;;;;;;;4.68;0.55;;;5.20;99.90;;;;;;4990524;28;20411;-77
2024/01/12 11:50:17;;;;;;;3.13;0.25;;;5.10;99.90;;;;;;4992584;28;20133;-77
2024/01/12 11:52:53;;;;;;;3.85;0.63;;;5.20;99.90;;;;;;4991087;28;20495;-76
2024/01/12 11:55:20;;;;;;;3.22;0.85;;;5.20;99.90;;;;;;4979825;28;20380;-76
2024/01/12 11:57:46;;;;;;;10.05;0.75;;;5.10;99.90;;;;;;4990880;28;20037;-76
2024/01/12 12:00:12;;;;;;;0.65;0.20;;;5.10;99.90;;;;;;4992068;28;20540;-76
2024/01/12 12:02:38;;;;;;;0.50;0.25;;;5.10;99.90;;;;;;4990864;28;20108;-76
2024/01/12 12:05:09;;;;;;;6.50;0.47;;;5.20;99.90;;;;;;4976103;28;20562;-76
2024/01/12 12:07:37;;;;;;;1.98;0.10;;;5.20;99.90;;;;;;4989495;28;20045;-76
2024/01/12 12:10:03;;;;;;;1.98;0.38;;;5.20;99.90;;;;;;4992656;28;20103;-76
2024/01/12 12:12:29;;;;;;;1.02;0.35;;;5.20;99.90;;;;;;4989942;28;20496;-76
2024/01/12 12:14:56;;;;;;;0.60;0.17;;;5.20;99.90;;;;;;4993069;28;20045;-76
2024/01/12 12:17:26;;;;;;;13.73;1.23;;;5.20;99.90;;;;;;4989997;28;20489;-76
2024/01/12 12:19:52;;;;;;;3.85;1.13;;;5.20;99.90;;;;;;4993867;28;20401;-76
2024/01/12 12:22:18;;;;;;;0.30;0.22;;;5.30;99.90;;;;;;4974509;28;20120;-76
2024/01/12 12:24:44;;;;;;;4.68;0.32;;;5.40;99.90;;;;;;4991301;28;20434;-76
2024/01/12 12:27:10;;;;;;;0.40;0.10;;;5.40;99.90;;;;;;4974231;28;20317;-76
2024/01/12 12:29:36;;;;;;;6.18;0.70;;;5.30;99.90;;;;;;4991740;28;20438;-76
2024/01/12 12:32:01;;;;;;;3.55;0.50;;;5.50;99.90;;;;;;4990519;28;20042;-76
2024/01/12 12:34:33;;;;;;;6.05;0.50;;;5.50;99.90;;;;;;4982858;28;20046;-76
2024/01/12 12:37:00;;;;;;;0.40;0.20;;;5.50;99.90;;;;;;5005293;28;20041;-76
2024/01/12 12:39:26;;;;;;;3.83;0.70;;;5.40;99.90;;;;;;4991412;28;20054;-76
2024/01/12 12:41:52;;;;;;;0.32;0.13;;;5.40;99.90;;;;;;4999339;28;20030;-76
2024/01/12 12:44:20;;;;;;;0.63;0.35;;;5.40;99.90;;;;;;4973456;28;20136;-76
2024/01/12 12:46:46;;;;;;;6.93;0.55;;;5.40;99.90;;;;;;4991006;28;20041;-76
2024/01/12 12:49:15;;;;;;;0.70;0.20;;;5.50;99.90;;;;;;4974884;28;20072;-76
2024/01/12 12:51:40;;;;;;;8.38;0.35;;;5.40;99.90;;;;;;4974215;28;20077;-76
2024/01/12 12:54:06;;;;;;;4.28;0.22;;;5.40;99.90;;;;;;4990245;28;20069;-76